createdAt,value
2023-05-12T00:00:51.776Z,5.3199
2023-05-12T00:01:52.873Z,5.4528
2023-05-12T00:02:53.928Z,5.2693
2023-05-12T00:03:54.968Z,5.4150
2023-05-12T00:04:55.967Z,5.4095
2023-05-12T00:05:56.970Z,5.0303
2023-05-12T00:06:58.048Z,5.0472
2023-05-12T00:07:59.112Z,4.7173
2023-05-12T00:09:00.040Z,5.0593
2023-05-12T00:10:01.086Z,5.4912
2023-05-12T00:11:02.097Z,5.8251
2023-05-12T00:12:03.166Z,5.6353
2023-05-12T00:13:04.218Z,5.6789
2023-05-12T00:14:05.214Z,5.4532
2023-05-12T00:15:06.239Z,5.7098
2023-05-12T00:16:07.326Z,6.0847
2023-05-12T00:17:08.366Z,5.9821
2023-05-12T00:18:09.412Z,6.3090
2023-05-12T00:19:10.472Z,6.5529
2023-05-12T00:20:11.437Z,6.6784
2023-05-12T00:21:12.446Z,6.7313
2023-05-12T00:22:13.535Z,6.4005
2023-05-12T00:23:14.508Z,6.4562
2023-05-12T00:24:15.578Z,7.0602
2023-05-12T00:25:16.568Z,7.1252
2023-05-12T00:26:17.616Z,6.7710
2023-05-12T00:27:18.670Z,6.7776
2023-05-12T00:28:19.730Z,6.8994
2023-05-12T00:29:20.708Z,7.1783
2023-05-12T00:30:22.057Z,6.5874
2023-05-12T00:31:22.828Z,7.0600
2023-05-12T00:32:23.908Z,7.1141
2023-05-12T00:33:24.917Z,6.8827
2023-05-12T00:34:25.931Z,6.8670
2023-05-12T00:35:26.947Z,7.1389
2023-05-12T00:36:28.028Z,6.9461
2023-05-12T00:37:29.052Z,6.9296
2023-05-12T00:38:30.083Z,6.6348
2023-05-12T00:39:31.117Z,7.0422
2023-05-12T00:40:32.138Z,6.8104
2023-05-12T00:41:33.137Z,6.7733
2023-05-12T00:42:34.245Z,6.9301
2023-05-12T00:43:35.236Z,7.1095
2023-05-12T00:44:36.291Z,6.9928
2023-05-12T00:45:37.355Z,6.8118
2023-05-12T00:46:38.330Z,6.6678
2023-05-12T00:47:39.472Z,6.5748
2023-05-12T00:48:40.515Z,6.7920
2023-05-12T00:49:41.566Z,6.7918
2023-05-12T00:50:42.567Z,6.9845
2023-05-12T00:51:43.578Z,7.1727
2023-05-12T00:52:44.706Z,6.9408
2023-05-12T00:53:49.930Z,6.5185
2023-05-12T00:54:46.761Z,6.7285
2023-05-12T00:55:47.749Z,6.5837
2023-05-12T00:56:48.776Z,6.2056
2023-05-12T00:57:49.783Z,7.0172
2023-05-12T00:58:50.869Z,6.3229
2023-05-12T00:59:51.914Z,6.6114
2023-05-12T01:00:52.915Z,6.4732
2023-05-12T01:01:53.935Z,6.7344
2023-05-12T01:02:55.074Z,6.5060
2023-05-12T01:03:56.073Z,6.9233
2023-05-12T01:04:57.074Z,7.2882
2023-05-12T01:05:58.056Z,7.2731
2023-05-12T01:06:59.155Z,7.2155
2023-05-12T01:08:00.171Z,6.8851
2023-05-12T01:09:01.274Z,6.8058
2023-05-12T01:10:02.286Z,7.0336
2023-05-12T01:11:03.333Z,7.1280
2023-05-12T01:12:04.360Z,6.8150
2023-05-12T01:13:05.329Z,6.4844
2023-05-12T01:14:06.471Z,7.4927
2023-05-12T01:15:07.435Z,6.9778
2023-05-12T01:16:08.436Z,6.5994
2023-05-12T01:17:09.532Z,6.3140
2023-05-12T01:18:10.553Z,6.3981
2023-05-12T01:19:11.617Z,6.7111
2023-05-12T01:20:12.614Z,6.3622
2023-05-12T01:21:13.639Z,6.2674
2023-05-12T01:22:14.617Z,5.9792
2023-05-12T01:23:15.681Z,6.5794
2023-05-12T01:24:16.895Z,6.1486
2023-05-12T01:25:17.857Z,5.9619
2023-05-12T01:26:18.863Z,6.4384
2023-05-12T01:27:19.997Z,6.3189
2023-05-12T01:28:20.893Z,6.0390
2023-05-12T01:29:21.992Z,5.8814
2023-05-12T01:30:23.396Z,6.1929
2023-05-12T01:31:24.122Z,6.0668
2023-05-12T01:32:25.101Z,5.9023
2023-05-12T01:33:26.114Z,6.3270
2023-05-12T01:34:27.191Z,6.0812
2023-05-12T01:35:28.302Z,5.9832
2023-05-12T01:36:29.216Z,6.0433
2023-05-12T01:37:30.300Z,6.4971
2023-05-12T01:38:31.376Z,5.9972
2023-05-12T01:39:32.372Z,6.3530
2023-05-12T01:40:33.408Z,6.1648
2023-05-12T01:41:34.431Z,5.8202
2023-05-12T01:42:35.452Z,6.2862
2023-05-12T01:43:36.508Z,5.9545
2023-05-12T01:44:37.666Z,5.6464
2023-05-12T01:45:38.606Z,5.5279
2023-05-12T01:46:39.741Z,5.1256
2023-05-12T01:47:40.698Z,5.2356
2023-05-12T01:48:41.691Z,5.0549
2023-05-12T01:49:42.792Z,5.4405
2023-05-12T01:50:43.817Z,5.1108
2023-05-12T01:51:44.812Z,4.9414
2023-05-12T01:52:45.849Z,5.2583
2023-05-12T01:53:46.947Z,5.0938
2023-05-12T01:54:47.933Z,5.6722
2023-05-12T01:55:48.968Z,5.5470
2023-05-12T01:56:49.973Z,4.7802
2023-05-12T01:57:51.048Z,4.9292
2023-05-12T01:58:52.117Z,5.0262
2023-05-12T01:59:53.132Z,5.2007
2023-05-12T02:00:54.165Z,5.2453
2023-05-12T02:01:55.256Z,5.1746
2023-05-12T02:02:56.376Z,5.0203
2023-05-12T02:03:57.310Z,4.9692
2023-05-12T02:04:58.331Z,5.1404
2023-05-12T02:05:59.413Z,5.0230
2023-05-12T02:07:00.392Z,5.6901
2023-05-12T02:08:01.409Z,5.6883
2023-05-12T02:09:02.495Z,5.9719
2023-05-12T02:10:03.539Z,5.4964
2023-05-12T02:11:04.618Z,5.3539
2023-05-12T02:12:05.571Z,5.7330
2023-05-12T02:13:06.704Z,5.8768
2023-05-12T02:14:07.655Z,5.5636
2023-05-12T02:15:08.830Z,5.7729
2023-05-12T02:16:09.816Z,5.6778
2023-05-12T02:17:10.856Z,5.8475
2023-05-12T02:18:11.821Z,5.6114
2023-05-12T02:19:12.933Z,6.3520
2023-05-12T02:20:13.946Z,5.6200
2023-05-12T02:21:15.035Z,5.9696
2023-05-12T02:22:15.985Z,6.1061
2023-05-12T02:23:17.037Z,6.3814
2023-05-12T02:24:18.058Z,6.2432
2023-05-12T02:25:19.175Z,6.5996
2023-05-12T02:26:20.216Z,6.3290
2023-05-12T02:27:21.219Z,7.0318
2023-05-12T02:28:22.260Z,7.4755
2023-05-12T02:29:23.289Z,7.1153
2023-05-12T02:30:24.369Z,6.5404
2023-05-12T02:31:25.466Z,7.1085
2023-05-12T02:32:26.443Z,8.0794
2023-05-12T02:33:27.457Z,7.6309
2023-05-12T02:34:28.496Z,7.4358
2023-05-12T02:35:29.612Z,7.0382
2023-05-12T02:36:30.625Z,6.7100
2023-05-12T02:37:31.614Z,6.7299
2023-05-12T02:38:32.657Z,6.6127
2023-05-12T02:39:33.695Z,6.7261
2023-05-12T02:40:34.792Z,6.6567
2023-05-12T02:41:35.856Z,6.5248
2023-05-12T02:42:36.810Z,6.7003
2023-05-12T02:43:37.858Z,7.0608
2023-05-12T02:44:38.895Z,6.8023
2023-05-12T02:45:40.076Z,7.1273
2023-05-12T02:46:41.062Z,6.6630
2023-05-12T02:47:42.052Z,6.5007
2023-05-12T02:48:43.056Z,7.3716
2023-05-12T02:49:44.123Z,7.0901
2023-05-12T02:50:45.177Z,7.0509
2023-05-12T02:51:46.275Z,6.8008
2023-05-12T02:52:47.217Z,7.3640
2023-05-12T02:53:48.236Z,7.5232
2023-05-12T02:54:49.297Z,6.6920
2023-05-12T02:55:50.388Z,6.6762
2023-05-12T02:56:51.384Z,6.9225
2023-05-12T02:57:52.390Z,6.2452
2023-05-12T02:58:53.424Z,6.4710
2023-05-12T02:59:54.474Z,6.3769
2023-05-12T03:01:03.353Z,5.9748
2023-05-12T03:01:56.686Z,5.6320
2023-05-12T03:02:57.654Z,5.9895
2023-05-12T03:03:58.624Z,5.9275
2023-05-12T03:04:59.673Z,5.8908
2023-05-12T03:06:00.782Z,6.0741
2023-05-12T03:07:01.779Z,6.1279
2023-05-12T03:08:02.780Z,5.6699
2023-05-12T03:09:03.818Z,6.1521
2023-05-12T03:10:04.909Z,6.2994
2023-05-12T03:11:05.943Z,6.1096
2023-05-12T03:12:07.023Z,6.0403
2023-05-12T03:13:07.984Z,6.5565
2023-05-12T03:14:09.034Z,6.4987
2023-05-12T03:15:10.071Z,6.0561
2023-05-12T03:16:11.041Z,6.5304
2023-05-12T03:17:12.243Z,6.5014
2023-05-12T03:18:13.300Z,6.3908
2023-05-12T03:19:14.291Z,6.2407
2023-05-12T03:20:15.339Z,6.0866
2023-05-12T03:21:16.399Z,6.3645
2023-05-12T03:22:17.412Z,6.8322
2023-05-12T03:23:18.435Z,6.9353
2023-05-12T03:24:19.498Z,6.6608
2023-05-12T03:25:20.429Z,6.6699
2023-05-12T03:26:21.577Z,6.6081
2023-05-12T03:27:22.622Z,6.9236
2023-05-12T03:28:23.659Z,6.8687
2023-05-12T03:29:24.595Z,7.3851
2023-05-12T03:30:25.632Z,7.0819
2023-05-12T03:31:26.769Z,7.1023
2023-05-12T03:32:27.821Z,6.8137
2023-05-12T03:33:28.759Z,6.7740
2023-05-12T03:34:29.774Z,6.7161
2023-05-12T03:35:30.864Z,6.8839
2023-05-12T03:36:31.928Z,6.4114
2023-05-12T03:37:32.941Z,6.9134
2023-05-12T03:38:33.936Z,6.7825
2023-05-12T03:39:34.963Z,6.4825
2023-05-12T03:40:36.032Z,7.1014
2023-05-12T03:41:37.060Z,7.0935
2023-05-12T03:42:38.152Z,6.3915
2023-05-12T03:43:39.096Z,6.6974
2023-05-12T03:44:40.165Z,6.9846
2023-05-12T03:45:41.206Z,6.8088
2023-05-12T03:46:42.405Z,6.8452
2023-05-12T03:47:43.452Z,6.6744
2023-05-12T03:48:44.381Z,6.9615
2023-05-12T03:49:45.326Z,6.4912
2023-05-12T03:50:46.375Z,6.6175
2023-05-12T03:51:47.453Z,6.6763
2023-05-12T03:52:48.515Z,6.5698
2023-05-12T03:53:49.488Z,6.8330
2023-05-12T03:54:50.601Z,6.9066
2023-05-12T03:55:51.566Z,7.5830
2023-05-12T03:56:52.687Z,7.1695
2023-05-12T03:57:53.736Z,7.6029
2023-05-12T03:58:54.688Z,7.5765
2023-05-12T03:59:55.693Z,7.5898
2023-05-12T04:00:56.786Z,8.0893
2023-05-12T04:01:57.842Z,7.1119
2023-05-12T04:02:59.042Z,7.5666
2023-05-12T04:03:59.881Z,6.9421
2023-05-12T04:05:00.915Z,7.3628
2023-05-12T04:06:01.941Z,7.3293
2023-05-12T04:07:03.004Z,7.2590
2023-05-12T04:08:04.112Z,7.5503
2023-05-12T04:09:05.036Z,6.8307
2023-05-12T04:10:06.108Z,6.9502
2023-05-12T04:11:07.170Z,7.0030
2023-05-12T04:12:08.241Z,6.8033
2023-05-12T04:13:09.229Z,7.3746
2023-05-12T04:14:10.328Z,7.0598
2023-05-12T04:15:11.268Z,6.6700
2023-05-12T04:16:12.399Z,7.1489
2023-05-12T04:17:13.486Z,7.1855
2023-05-12T04:18:14.485Z,6.8977
2023-05-12T04:19:15.461Z,7.0805
2023-05-12T04:20:16.549Z,6.4811
2023-05-12T04:21:17.550Z,6.3733
2023-05-12T04:22:18.632Z,5.9099
2023-05-12T04:23:19.669Z,5.8664
2023-05-12T04:24:20.690Z,5.8612
2023-05-12T04:25:21.756Z,5.4143
2023-05-12T04:26:22.684Z,5.4499
2023-05-12T04:27:23.796Z,5.4527
2023-05-12T04:28:24.835Z,5.4132
2023-05-12T04:29:25.823Z,5.8305
2023-05-12T04:30:26.869Z,5.7966
2023-05-12T04:31:27.905Z,5.6491
2023-05-12T04:32:28.989Z,5.7879
2023-05-12T04:33:30.038Z,6.0172
2023-05-12T04:34:31.023Z,5.9932
2023-05-12T04:35:31.999Z,5.9511
2023-05-12T04:36:33.069Z,5.9247
2023-05-12T04:37:34.157Z,6.2139
2023-05-12T04:38:35.141Z,6.3386
2023-05-12T04:39:36.229Z,6.2667
2023-05-12T04:40:37.201Z,6.6025
2023-05-12T04:41:38.285Z,6.8684
2023-05-12T04:42:39.298Z,6.9905
2023-05-12T04:44:41.301Z,7.2191
2023-05-12T04:45:42.428Z,6.7664
2023-05-12T04:46:43.422Z,7.2805
2023-05-12T04:47:44.568Z,7.2727
2023-05-12T04:48:45.586Z,6.9402
2023-05-12T04:49:46.631Z,7.3622
2023-05-12T04:50:47.592Z,7.5048
2023-05-12T04:51:48.638Z,6.9521
2023-05-12T04:52:49.657Z,6.5377
2023-05-12T04:53:50.767Z,6.8427
2023-05-12T04:54:51.703Z,6.9534
2023-05-12T04:55:52.803Z,7.1227
2023-05-12T04:56:53.786Z,7.3395
2023-05-12T04:57:54.870Z,7.8845
2023-05-12T04:58:55.861Z,7.1715
2023-05-12T04:59:56.931Z,7.1124
2023-05-12T05:00:57.936Z,6.6467
2023-05-12T05:01:58.967Z,7.0928
2023-05-12T05:03:00.227Z,7.3460
2023-05-12T05:04:01.181Z,7.5417
2023-05-12T05:05:02.103Z,6.9803
2023-05-12T05:06:03.124Z,6.9642
2023-05-12T05:07:04.193Z,6.5902
2023-05-12T05:08:05.323Z,7.3782
2023-05-12T05:09:06.304Z,6.6983
2023-05-12T05:10:07.314Z,6.8050
2023-05-12T05:11:08.326Z,7.1810
2023-05-12T05:12:09.353Z,7.0808
2023-05-12T05:13:10.477Z,6.4503
2023-05-12T05:14:11.512Z,6.5349
2023-05-12T05:15:12.524Z,6.8548
2023-05-12T05:16:13.563Z,7.9965
2023-05-12T05:17:14.557Z,7.5563
2023-05-12T05:18:15.768Z,7.1477
2023-05-12T05:19:22.594Z,7.0901
2023-05-12T05:20:17.745Z,7.1966
2023-05-12T05:21:18.718Z,7.6328
2023-05-12T05:22:19.721Z,7.2817
2023-05-12T05:23:20.835Z,7.1096
2023-05-12T05:24:21.964Z,7.1368
2023-05-12T05:25:23.028Z,7.5240
2023-05-12T05:26:23.959Z,7.3665
2023-05-12T05:27:25.018Z,7.9425
2023-05-12T05:28:26.127Z,7.3614
2023-05-12T05:29:27.157Z,6.7999
2023-05-12T05:30:28.195Z,7.3084
2023-05-12T05:31:29.288Z,7.0698
2023-05-12T05:32:30.241Z,6.9709
2023-05-12T05:33:31.345Z,7.1916
2023-05-12T05:34:32.376Z,6.7797
2023-05-12T05:35:33.320Z,6.7975
2023-05-12T05:36:34.357Z,6.9749
2023-05-12T05:37:35.409Z,7.0371
2023-05-12T05:38:36.611Z,6.9990
2023-05-12T05:39:37.550Z,6.5613
2023-05-12T05:40:49.321Z,6.5046
2023-05-12T05:41:39.575Z,6.3642
2023-05-12T05:42:40.604Z,6.3253
2023-05-12T05:43:41.686Z,7.1338
2023-05-12T05:44:42.738Z,6.9931
2023-05-12T05:45:43.736Z,7.3869
2023-05-12T05:46:44.846Z,7.9123
2023-05-12T05:47:45.806Z,8.2047
2023-05-12T05:48:46.900Z,9.0995
2023-05-12T05:49:47.933Z,8.0447
2023-05-12T05:50:48.925Z,8.4052
2023-05-12T05:51:49.960Z,8.1446
2023-05-12T05:52:51.005Z,7.8366
2023-05-12T05:53:52.079Z,7.5422
2023-05-12T05:54:53.216Z,7.0695
2023-05-12T05:55:54.109Z,8.1655
2023-05-12T05:56:55.147Z,8.4669
2023-05-12T05:57:56.201Z,8.7980
2023-05-12T05:58:57.241Z,8.2366
2023-05-12T05:59:58.320Z,8.4557
2023-05-12T06:00:59.368Z,7.9785
2023-05-12T06:02:00.431Z,7.9698
2023-05-12T06:03:01.480Z,7.1518
2023-05-12T06:04:02.567Z,7.9767
2023-05-12T06:05:03.525Z,8.1500
2023-05-12T06:06:04.523Z,8.3590
2023-05-12T06:07:05.522Z,7.9858
2023-05-12T06:08:06.564Z,7.5672
2023-05-12T06:09:07.667Z,7.5401
2023-05-12T06:10:08.731Z,7.3869
2023-05-12T06:11:09.672Z,7.5320
2023-05-12T06:12:10.682Z,7.0558
2023-05-12T06:13:11.836Z,6.4422
2023-05-12T06:14:12.893Z,6.9095
2023-05-12T06:15:13.886Z,6.3633
2023-05-12T06:16:14.959Z,6.6914
2023-05-12T06:17:15.855Z,7.1253
2023-05-12T06:18:16.936Z,6.8563
2023-05-12T06:19:18.015Z,6.6590
2023-05-12T06:20:19.080Z,6.8834
2023-05-12T06:21:20.074Z,7.0987
2023-05-12T06:22:21.148Z,7.1286
2023-05-12T06:23:22.181Z,6.5453
2023-05-12T06:24:23.249Z,7.2428
2023-05-12T06:25:24.278Z,6.9820
2023-05-12T06:26:25.236Z,6.6829
2023-05-12T06:27:26.254Z,6.4451
2023-05-12T06:28:27.346Z,6.8621
2023-05-12T06:29:28.409Z,7.3494
2023-05-12T06:30:29.519Z,7.0588
2023-05-12T06:31:30.448Z,7.0945
2023-05-12T06:32:31.643Z,6.6645
2023-05-12T06:33:32.537Z,7.8073
2023-05-12T06:34:33.623Z,7.1335
2023-05-12T06:35:34.628Z,7.4828
2023-05-12T06:36:35.673Z,7.5872
2023-05-12T06:37:36.696Z,8.0924
2023-05-12T06:38:37.854Z,8.6942
2023-05-12T06:39:38.763Z,8.4104
2023-05-12T06:40:39.856Z,8.1121
2023-05-12T06:41:40.814Z,8.4843
2023-05-12T06:42:41.900Z,8.4415
2023-05-12T06:43:42.910Z,8.9598
2023-05-12T06:44:44.014Z,8.7935
2023-05-12T06:45:45.019Z,8.1747
2023-05-12T06:46:46.232Z,8.2964
2023-05-12T06:47:47.114Z,8.5106
2023-05-12T06:48:48.115Z,8.5875
2023-05-12T06:49:49.221Z,8.4368
2023-05-12T06:50:50.268Z,8.3485
2023-05-12T06:51:51.189Z,8.6286
2023-05-12T06:52:52.291Z,9.3144
2023-05-12T06:53:53.317Z,9.3393
2023-05-12T06:54:54.485Z,8.2147
2023-05-12T06:55:55.430Z,7.7253
2023-05-12T06:56:56.455Z,7.4047
2023-05-12T06:57:57.467Z,7.2037
2023-05-12T06:58:58.548Z,7.2518
2023-05-12T06:59:59.594Z,7.2738
2023-05-12T07:01:00.709Z,6.6917
2023-05-12T07:02:01.632Z,6.4126
2023-05-12T07:03:02.729Z,6.7487
2023-05-12T07:04:03.793Z,6.5406
2023-05-12T07:05:04.805Z,6.7985
2023-05-12T07:06:05.840Z,7.5813
2023-05-12T07:07:06.821Z,7.4733
2023-05-12T07:08:07.848Z,7.3679
2023-05-12T07:09:08.914Z,7.6781
2023-05-12T07:10:09.988Z,7.4888
2023-05-12T07:11:11.039Z,7.4205
2023-05-12T07:12:12.010Z,7.7892
2023-05-12T07:13:13.061Z,7.9924
2023-05-12T07:14:14.068Z,7.7487
2023-05-12T07:15:15.158Z,7.3930
2023-05-12T07:16:16.208Z,7.8730
2023-05-12T07:17:17.182Z,8.0988
2023-05-12T07:18:18.242Z,7.8328
2023-05-12T07:19:19.250Z,7.6813
2023-05-12T07:20:20.390Z,7.2646
2023-05-12T07:21:21.396Z,7.7119
2023-05-12T07:22:22.423Z,7.4538
2023-05-12T07:23:23.447Z,7.6913
2023-05-12T07:24:24.491Z,7.8762
2023-05-12T07:25:25.575Z,8.1454
2023-05-12T07:26:26.612Z,6.8425
2023-05-12T07:27:27.573Z,6.6160
2023-05-12T07:28:28.639Z,6.9377
2023-05-12T07:29:29.666Z,6.8998
2023-05-12T07:30:30.766Z,7.0423
2023-05-12T07:31:31.816Z,7.5289
2023-05-12T07:32:32.883Z,6.9997
2023-05-12T07:33:33.856Z,7.3246
2023-05-12T07:34:34.847Z,7.0664
2023-05-12T07:35:35.950Z,542.4396
2023-05-12T07:36:36.995Z,854.3130
2023-05-12T07:37:37.930Z,1121.4922
2023-05-12T07:38:39.083Z,204.9692
2023-05-12T07:39:40.056Z,43.6719
2023-05-12T07:40:41.147Z,42.2700
2023-05-12T07:41:42.125Z,17.1925
2023-05-12T07:42:43.129Z,28.2638
2023-05-12T07:43:44.217Z,82.7628
2023-05-12T07:44:45.258Z,181.0310
2023-05-12T07:45:46.313Z,68.8109
2023-05-12T07:46:47.374Z,117.9996
2023-05-12T07:47:48.401Z,67.8141
2023-05-12T07:48:49.396Z,27.1472
2023-05-12T07:49:50.394Z,46.8345
2023-05-12T07:50:51.524Z,266.9129
2023-05-12T07:51:52.510Z,148.3409
2023-05-12T07:52:53.649Z,267.9159
2023-05-12T07:53:54.592Z,209.9871
2023-05-12T07:54:55.572Z,386.4310
2023-05-12T07:55:56.753Z,627.0345
2023-05-12T07:56:57.731Z,666.4537
2023-05-12T07:57:58.758Z,360.3245
2023-05-12T07:58:59.751Z,840.0347
2023-05-12T08:00:00.809Z,322.7041
2023-05-12T08:01:01.899Z,303.2523
2023-05-12T08:02:02.979Z,195.3669
2023-05-12T08:03:04.023Z,127.2035
2023-05-12T08:04:05.013Z,334.9069
2023-05-12T08:05:05.960Z,323.3559
2023-05-12T08:06:07.088Z,150.8387
2023-05-12T08:07:08.091Z,68.7223
2023-05-12T08:08:09.088Z,34.7410
2023-05-12T08:09:10.137Z,289.3027
2023-05-12T08:10:11.163Z,121.1406
2023-05-12T08:11:12.268Z,43.0104
2023-05-12T08:12:13.316Z,15.4343
2023-05-12T08:13:14.271Z,10.7786
2023-05-12T08:14:15.367Z,7.1562
2023-05-12T08:15:16.370Z,4.8052
2023-05-12T08:16:17.517Z,4.7054
2023-05-12T08:17:18.592Z,4.4132
2023-05-12T08:18:19.583Z,4.0719
2023-05-12T08:19:20.482Z,4.0358
2023-05-12T08:20:21.553Z,95.6474
2023-05-12T08:21:22.537Z,213.1119
2023-05-12T08:22:23.719Z,18.3946
2023-05-12T08:23:24.695Z,151.6393
2023-05-12T08:24:25.689Z,803.8024
2023-05-12T08:25:26.710Z,815.4431
2023-05-12T08:26:27.872Z,452.8116
2023-05-12T08:27:28.871Z,83.8487
2023-05-12T08:28:29.841Z,8.9571
2023-05-12T08:29:30.891Z,6.1229
2023-05-12T08:30:31.932Z,161.8255
2023-05-12T08:31:33.135Z,480.1127
2023-05-12T08:32:34.216Z,18.0698
2023-05-12T08:33:35.057Z,28.5312
2023-05-12T08:34:36.083Z,6.8332
2023-05-12T08:35:37.106Z,4.6922
2023-05-12T08:36:38.237Z,4.9180
2023-05-12T08:37:39.256Z,4.7737
2023-05-12T08:38:40.332Z,4.4825
2023-05-12T08:39:41.271Z,17.9508
2023-05-12T08:40:42.322Z,16.1373
2023-05-12T08:41:43.465Z,7.0073
2023-05-12T08:42:44.491Z,5.2749
2023-05-12T08:43:45.434Z,4.7082
2023-05-12T08:44:46.564Z,4.5151
2023-05-12T08:45:47.493Z,4.1033
2023-05-12T08:46:48.705Z,4.5504
2023-05-12T08:47:49.764Z,4.3786
2023-05-12T08:48:50.723Z,4.2377
2023-05-12T08:49:52.637Z,4.3916
2023-05-12T08:50:52.718Z,4.5478
2023-05-12T08:51:57.187Z,4.0948
2023-05-12T08:52:54.907Z,4.4815
2023-05-12T08:53:55.827Z,4.6774
2023-05-12T08:54:56.986Z,4.6036
2023-05-12T08:57:08.927Z,4.4427
2023-05-12T08:58:00.111Z,3.9987
2023-05-12T08:59:01.126Z,4.2516
2023-05-12T09:00:02.090Z,4.3208
2023-05-12T09:01:03.183Z,4.4539
2023-05-12T09:02:04.294Z,4.2617
2023-05-12T09:03:05.289Z,4.1131
2023-05-12T09:04:06.336Z,4.4979
2023-05-12T09:05:07.281Z,4.4006
2023-05-12T09:06:08.394Z,4.2059
2023-05-12T09:07:09.394Z,4.8222
2023-05-12T09:08:10.422Z,4.2696
2023-05-12T09:09:11.523Z,4.4244
2023-05-12T09:10:22.425Z,4.0608
2023-05-12T09:11:13.508Z,4.3160
2023-05-12T09:12:15.085Z,4.4372
2023-05-12T09:13:15.646Z,4.6986
2023-05-12T09:14:16.685Z,4.5562
2023-05-12T09:15:17.675Z,4.8391
2023-05-12T09:16:18.827Z,4.5121
2023-05-12T09:17:19.835Z,4.5027
2023-05-12T09:18:20.841Z,4.4978
2023-05-12T09:19:21.843Z,4.3295
2023-05-12T09:20:31.011Z,4.0876
2023-05-12T09:21:23.874Z,4.5436
2023-05-12T09:22:25.039Z,4.2013
2023-05-12T09:23:26.038Z,3.8985
2023-05-12T09:24:27.032Z,4.1952
2023-05-12T09:25:28.115Z,4.3608
2023-05-12T09:26:29.070Z,4.4435
2023-05-12T09:27:30.150Z,4.7338
2023-05-12T09:28:31.199Z,4.1021
2023-05-12T09:29:35.700Z,4.6956
2023-05-12T09:30:33.224Z,3.9235
2023-05-12T09:31:34.279Z,3.9156
2023-05-12T09:32:35.426Z,3.8541
2023-05-12T09:33:36.361Z,4.3114
2023-05-12T09:34:37.397Z,3.6122
2023-05-12T09:35:38.402Z,3.8277
2023-05-12T09:36:39.458Z,4.0627
2023-05-12T09:37:40.570Z,3.9971
2023-05-12T09:38:41.596Z,4.0337
2023-05-12T09:39:42.595Z,4.1278
2023-05-12T09:40:43.632Z,4.1271
2023-05-12T09:41:44.625Z,3.8665
2023-05-12T09:42:45.729Z,4.2112
2023-05-12T09:43:46.867Z,5.0176
2023-05-12T09:44:47.794Z,4.2995
2023-05-12T09:45:48.808Z,4.0785
2023-05-12T09:46:49.868Z,3.9164
2023-05-12T09:47:50.979Z,3.8440
2023-05-12T09:48:52.012Z,3.7471
2023-05-12T09:49:52.975Z,3.7143
2023-05-12T09:50:54.019Z,3.4760
2023-05-12T09:51:55.052Z,3.6210
2023-05-12T09:52:56.141Z,3.7391
2023-05-12T09:53:57.161Z,3.4875
2023-05-12T09:54:58.200Z,3.1517
2023-05-12T09:55:59.264Z,3.1132
2023-05-12T09:57:00.277Z,3.1185
2023-05-12T09:58:01.319Z,3.0016
2023-05-12T09:59:02.394Z,24.5645
2023-05-12T10:00:04.789Z,33.5032
2023-05-12T10:01:20.772Z,12.4386
2023-05-12T10:02:05.644Z,28.1463
2023-05-12T10:03:06.641Z,11.0487
2023-05-12T10:04:07.650Z,5.9856
2023-05-12T10:05:08.689Z,4.8083
2023-05-12T10:06:09.632Z,3.4525
2023-05-12T10:07:10.682Z,3.3295
2023-05-12T10:08:11.760Z,2.9181
2023-05-12T10:09:12.786Z,2.8246
2023-05-12T10:10:13.812Z,2.5257
2023-05-12T10:11:14.851Z,2.4042
2023-05-12T10:12:15.847Z,2.4563
2023-05-12T10:13:16.955Z,2.5085
2023-05-12T10:14:17.953Z,2.5407
2023-05-12T10:15:19.241Z,2.2232
2023-05-12T10:16:20.189Z,2.2968
2023-05-12T10:17:21.288Z,2.1448
2023-05-12T10:18:22.228Z,2.0340
2023-05-12T10:19:23.358Z,2.2701
2023-05-12T10:20:24.333Z,2.0996
2023-05-12T10:21:25.363Z,2.0261
2023-05-12T10:22:26.395Z,2.0002
2023-05-12T10:23:27.441Z,2.3732
2023-05-12T10:24:28.566Z,2.0871
2023-05-12T10:25:29.600Z,1.9613
2023-05-12T10:26:30.613Z,1.6970
2023-05-12T10:27:31.613Z,2.2766
2023-05-12T10:28:32.606Z,2.2795
2023-05-12T10:29:33.780Z,2.0621
2023-05-12T10:30:34.806Z,1.9169
2023-05-12T10:31:35.809Z,1.8648
2023-05-12T10:32:36.843Z,1.8004
2023-05-12T10:33:37.900Z,1.9073
2023-05-12T10:34:38.940Z,1.8153
2023-05-12T10:35:40.031Z,2.0053
2023-05-12T10:36:41.011Z,2.1515
2023-05-12T10:37:41.996Z,1.8800
2023-05-12T10:38:43.194Z,2.1703
2023-05-12T10:39:44.227Z,2.1147
2023-05-12T10:40:45.278Z,2.0681
2023-05-12T10:41:46.255Z,2.0442
2023-05-12T10:42:47.244Z,2.1465
2023-05-12T10:43:48.291Z,1.7839
2023-05-12T10:44:49.398Z,1.9276
2023-05-12T10:45:50.519Z,2.0887
2023-05-12T10:46:51.415Z,2.1453
2023-05-12T10:47:52.616Z,2.2233
2023-05-12T10:48:53.498Z,2.3337
2023-05-12T10:49:54.583Z,2.4634
2023-05-12T10:50:55.620Z,2.4502
2023-05-12T10:51:56.626Z,2.3795
2023-05-12T10:52:57.657Z,2.0660
2023-05-12T10:53:58.766Z,2.3941
2023-05-12T10:54:59.823Z,2.5954
2023-05-12T10:56:01.236Z,2.4866
2023-05-12T10:57:02.202Z,2.4991
2023-05-12T10:58:03.107Z,2.6541
2023-05-12T10:59:04.033Z,2.6224
2023-05-12T11:00:05.264Z,2.3459
2023-05-12T11:01:06.267Z,2.1530
2023-05-12T11:02:08.126Z,2.1820
2023-05-12T11:03:10.390Z,1.9974
2023-05-12T11:04:09.206Z,2.0492
2023-05-12T11:05:10.661Z,2.1378
2023-05-12T11:06:11.743Z,2.0101
2023-05-12T11:07:12.526Z,1.8519
2023-05-12T11:08:14.269Z,2.1022
2023-05-12T11:09:15.442Z,2.1508
2023-05-12T11:10:15.529Z,2.1460
2023-05-12T11:11:16.463Z,2.8778
2023-05-12T11:12:17.480Z,2.6783
2023-05-12T11:13:18.479Z,2.1501
2023-05-12T11:14:19.576Z,2.1973
2023-05-12T11:15:20.743Z,2.2088
2023-05-12T11:16:21.685Z,2.3578
2023-05-12T11:17:22.760Z,2.5275
2023-05-12T11:18:23.752Z,2.2784
2023-05-12T11:19:24.794Z,2.2775
2023-05-12T11:20:26.199Z,2.2628
2023-05-12T11:21:26.883Z,2.2271
2023-05-12T11:22:27.851Z,2.3705
2023-05-12T11:23:29.037Z,2.4021
2023-05-12T11:24:29.933Z,2.0067
2023-05-12T11:25:31.032Z,2.4685
2023-05-12T11:26:32.163Z,2.1352
2023-05-12T11:27:33.053Z,2.3442
2023-05-12T11:28:34.117Z,2.3315
2023-05-12T11:29:35.160Z,2.1739
2023-05-12T11:30:36.295Z,2.2718
2023-05-12T11:31:37.312Z,1.9077
2023-05-12T11:32:38.379Z,2.1363
2023-05-12T11:33:39.316Z,2.3256
2023-05-12T11:34:40.293Z,2.2336
2023-05-12T11:35:41.412Z,1.8929
2023-05-12T11:36:42.508Z,2.1586
2023-05-12T11:37:43.549Z,2.0904
2023-05-12T11:38:44.467Z,2.0224
2023-05-12T11:39:45.514Z,2.2418
2023-05-12T11:40:46.639Z,1.8227
2023-05-12T11:41:47.686Z,2.1799
2023-05-12T11:42:48.891Z,2.4037
2023-05-12T11:43:49.682Z,2.0107
2023-05-12T11:44:50.739Z,2.5542
2023-05-12T11:45:51.901Z,8.7566
2023-05-12T11:46:52.880Z,3.1397
2023-05-12T11:47:53.947Z,2.2955
2023-05-12T11:48:55.227Z,2.0175
2023-05-12T11:49:55.911Z,2.3432
2023-05-12T11:50:57.038Z,2.5083
2023-05-12T11:51:58.069Z,1.9843
2023-05-12T11:52:59.009Z,1.7548
2023-05-12T11:54:00.151Z,1.7182
2023-05-12T11:55:01.147Z,1.5968
2023-05-12T11:56:02.233Z,1.7431
2023-05-12T11:57:03.297Z,1.7443
2023-05-12T11:58:04.318Z,1.7012
2023-05-12T11:59:05.269Z,1.5645
2023-05-12T12:00:06.948Z,1.7021
2023-05-12T12:01:07.397Z,1.7316
2023-05-12T12:02:08.492Z,1.6616
2023-05-12T12:03:09.595Z,1.5238
2023-05-12T12:04:10.625Z,1.4095
2023-05-12T12:05:11.462Z,1.4988
2023-05-12T12:06:12.651Z,1.6070
2023-05-12T12:07:13.715Z,1.7086
2023-05-12T12:08:14.604Z,1.7740
2023-05-12T12:09:15.626Z,1.8776
2023-05-12T12:10:16.709Z,1.7434
2023-05-12T12:11:17.757Z,1.5881
2023-05-12T12:12:18.822Z,1.4762
2023-05-12T12:13:19.827Z,1.6321
2023-05-12T12:14:20.848Z,1.5372
2023-05-12T12:15:22.116Z,1.4129
2023-05-12T12:16:22.994Z,1.4808
2023-05-12T12:17:24.050Z,1.6974
2023-05-12T12:18:25.110Z,1.5253
2023-05-12T12:19:26.058Z,1.2536
2023-05-12T12:20:27.102Z,1.4390
2023-05-12T12:21:28.247Z,1.5481
2023-05-12T12:22:29.252Z,1.2558
2023-05-12T12:23:37.820Z,1.5838
2023-05-12T12:24:31.273Z,1.5401
2023-05-12T12:25:32.310Z,1.2533
2023-05-12T12:26:33.433Z,1.3499
2023-05-12T12:27:34.411Z,1.4867
2023-05-12T12:28:35.401Z,1.6213
2023-05-12T12:29:36.431Z,1.6318
2023-05-12T12:30:37.562Z,1.6906
2023-05-12T12:31:38.740Z,1.7650
2023-05-12T12:32:39.665Z,1.3768
2023-05-12T12:33:40.642Z,1.4187
2023-05-12T12:34:41.679Z,1.3258
2023-05-12T12:35:42.722Z,1.3532
2023-05-12T12:36:43.808Z,1.1927
2023-05-12T12:37:44.825Z,1.1767
2023-05-12T12:38:45.947Z,0.9720
2023-05-12T12:39:46.942Z,1.0906
2023-05-12T12:40:47.934Z,1.1081